createdAt,value
2023-03-05T00:01:43.334Z,5.75
2023-03-05T00:06:56.724Z,5.54
2023-03-05T00:12:02.170Z,5.56
2023-03-05T00:17:06.412Z,5.36
2023-03-05T00:22:10.683Z,5.44
2023-03-05T00:27:16.203Z,5.41
2023-03-05T00:32:20.392Z,5.33
2023-03-05T00:37:24.993Z,5.06
2023-03-05T00:42:30.552Z,5.15
2023-03-05T00:47:34.764Z,5.05
2023-03-05T00:52:39.207Z,5.08
2023-03-05T00:57:46.813Z,5.13
2023-03-05T01:02:50.905Z,5.10
2023-03-05T01:07:55.500Z,5.08
2023-03-05T01:13:01.284Z,5.28
2023-03-05T01:18:05.489Z,5.13
2023-03-05T01:23:09.942Z,5.35
2023-03-05T01:28:15.444Z,5.17
2023-03-05T01:33:19.909Z,5.30
2023-03-05T01:38:24.030Z,5.46
2023-03-05T01:43:32.078Z,5.38
2023-03-05T01:48:36.910Z,5.24
2023-03-05T01:53:43.833Z,5.16
2023-03-05T01:58:51.462Z,5.17
2023-03-05T02:03:55.696Z,5.29
2023-03-05T02:09:01.354Z,5.31
2023-03-05T02:14:10.138Z,5.38
2023-03-05T02:19:15.862Z,5.01
2023-03-05T02:24:36.556Z,4.99
2023-03-05T02:29:44.080Z,4.88
2023-03-05T02:34:48.183Z,4.58
2023-03-05T02:39:54.591Z,4.59
2023-03-05T02:44:59.544Z,4.85
2023-03-05T02:50:05.068Z,4.90
2023-03-05T02:55:11.750Z,4.98
2023-03-05T03:00:18.346Z,4.69
2023-03-05T03:05:22.732Z,4.72
2023-03-05T03:10:30.259Z,4.60
2023-03-05T03:15:34.894Z,4.64
2023-03-05T03:20:40.030Z,4.45
2023-03-05T03:25:46.012Z,4.56
2023-03-05T03:30:50.269Z,4.48
2023-03-05T03:35:54.406Z,4.40
2023-03-05T03:40:59.925Z,4.59
2023-03-05T03:46:06.263Z,4.83
2023-03-05T03:51:10.736Z,5.00
2023-03-05T03:56:16.280Z,5.07
2023-03-05T04:01:20.714Z,5.03
2023-03-05T04:06:25.871Z,5.23
2023-03-05T04:11:31.253Z,5.14
2023-03-05T04:16:36.643Z,5.05
2023-03-05T04:21:41.522Z,5.02
2023-03-05T04:26:47.558Z,5.16
2023-03-05T04:31:51.644Z,5.21
2023-03-05T04:36:56.552Z,5.36
2023-03-05T04:42:02.715Z,5.18
2023-03-05T04:47:07.182Z,4.94
2023-03-05T04:52:13.549Z,5.15
2023-03-05T04:57:19.531Z,5.12
2023-03-05T05:02:24.213Z,4.79
2023-03-05T05:07:29.929Z,5.15
2023-03-05T05:12:39.308Z,5.14
2023-03-05T05:17:43.268Z,4.95
2023-03-05T05:22:47.255Z,5.12
2023-03-05T05:27:53.126Z,5.17
2023-03-05T05:32:58.457Z,4.96
2023-03-05T05:38:05.016Z,5.18
2023-03-05T05:43:10.982Z,5.19
2023-03-05T05:48:15.102Z,5.15
2023-03-05T05:53:19.152Z,5.36
2023-03-05T05:58:26.671Z,5.40
2023-03-05T06:03:30.743Z,5.54
2023-03-05T06:08:35.070Z,5.58
2023-03-05T06:13:41.151Z,5.41
2023-03-05T06:18:45.724Z,5.48
2023-03-05T06:23:51.572Z,5.65
2023-03-05T06:28:57.707Z,5.81
2023-03-05T06:34:02.563Z,5.97
2023-03-05T06:39:07.447Z,5.79
2023-03-05T06:44:14.215Z,5.67
2023-03-05T06:49:20.580Z,5.84
2023-03-05T06:54:24.811Z,5.98
2023-03-05T06:59:30.285Z,6.02
2023-03-05T07:04:34.403Z,6.07
2023-03-05T07:09:43.184Z,6.46
2023-03-05T07:14:55.719Z,7.19
2023-03-05T07:19:59.977Z,8.04
2023-03-05T07:25:04.594Z,7.88
2023-03-05T07:30:11.880Z,8.18
2023-03-05T07:35:18.463Z,8.11
2023-03-05T07:40:23.101Z,8.21
2023-03-05T07:45:28.639Z,7.88
2023-03-05T07:50:33.414Z,7.75
2023-03-05T07:55:44.355Z,9.06
2023-03-05T08:00:50.546Z,9.82
2023-03-05T08:05:55.097Z,10.16
2023-03-05T08:11:05.318Z,10.12
2023-03-05T08:16:15.835Z,11.14
2023-03-05T08:21:48.266Z,10.41
2023-03-05T08:27:05.780Z,10.72
2023-03-05T08:32:15.804Z,10.69
2023-03-05T08:37:25.192Z,10.47
2023-03-05T08:42:31.289Z,10.27
2023-03-05T08:47:41.606Z,10.25
2023-03-05T08:52:46.147Z,9.03
2023-03-05T08:57:50.747Z,9.35
2023-03-05T09:03:11.019Z,9.07
2023-03-05T09:08:24.484Z,9.11
2023-03-05T09:13:35.011Z,9.22
2023-03-05T09:18:44.696Z,8.67
2023-03-05T09:23:49.122Z,8.80
2023-03-05T09:28:54.924Z,8.80
2023-03-05T09:34:01.139Z,8.83
2023-03-05T09:39:17.058Z,8.67
2023-03-05T09:44:34.311Z,8.62
2023-03-05T09:49:52.474Z,8.71
2023-03-05T09:54:59.796Z,8.86
2023-03-05T10:00:09.656Z,8.48
2023-03-05T10:05:22.334Z,8.50
2023-03-05T10:10:32.994Z,8.69
2023-03-05T10:15:50.578Z,9.09
2023-03-05T10:21:02.777Z,9.06
2023-03-05T10:26:37.665Z,9.12
2023-03-05T10:31:58.761Z,9.06
2023-03-05T10:37:32.106Z,9.23
2023-03-05T10:42:48.427Z,9.51
2023-03-05T10:48:03.146Z,9.65
2023-03-05T10:53:18.198Z,9.88
2023-03-05T10:58:24.631Z,10.07
2023-03-05T11:03:49.022Z,9.89
2023-03-05T11:08:55.772Z,9.69
2023-03-05T11:14:02.555Z,10.09
2023-03-05T11:19:19.453Z,9.90
2023-03-05T11:24:25.410Z,9.97
2023-03-05T11:29:32.453Z,9.80
2023-03-05T11:34:36.656Z,9.91
2023-03-05T11:39:42.865Z,9.76
2023-03-05T11:44:50.638Z,9.98
2023-03-05T11:50:03.094Z,10.06
2023-03-05T11:55:16.032Z,10.24
2023-03-05T12:00:26.384Z,10.29
2023-03-05T12:05:32.500Z,10.43
2023-03-05T12:10:37.922Z,10.68
2023-03-05T12:16:02.059Z,10.85
2023-03-05T12:21:09.762Z,10.81
2023-03-05T12:26:16.298Z,10.84
2023-03-05T12:31:37.976Z,11.13
2023-03-05T12:36:43.727Z,10.97
2023-03-05T12:41:50.047Z,10.74
2023-03-05T12:47:23.900Z,10.67
2023-03-05T12:52:31.094Z,10.38
2023-03-05T12:57:41.101Z,10.25
2023-03-05T13:02:49.631Z,10.08
2023-03-05T13:07:54.014Z,10.08
2023-03-05T13:12:59.736Z,10.11
2023-03-05T13:18:08.788Z,10.16
2023-03-05T13:23:21.101Z,10.13
2023-03-05T13:28:27.524Z,9.71
2023-03-05T13:33:34.546Z,9.61
2023-03-05T13:38:45.172Z,9.70
2023-03-05T13:43:53.684Z,9.91
2023-03-05T13:49:18.942Z,9.63
2023-03-05T13:54:24.620Z,9.57
2023-03-05T13:59:32.954Z,9.67
2023-03-05T14:04:39.543Z,9.50
2023-03-05T14:09:50.621Z,9.32
2023-03-05T14:14:59.404Z,9.34
2023-03-05T14:20:25.011Z,9.16
2023-03-05T14:25:39.796Z,9.24
2023-03-05T14:30:48.769Z,9.13
2023-03-05T14:35:54.057Z,8.94
2023-03-05T14:40:58.632Z,8.90
2023-03-05T14:46:05.997Z,8.92
2023-03-05T14:51:12.975Z,8.84
2023-03-05T14:56:23.822Z,8.87
2023-03-05T15:01:29.702Z,8.90
2023-03-05T15:06:38.203Z,9.02
2023-03-05T15:11:42.505Z,8.74
2023-03-05T15:16:51.496Z,8.79
2023-03-05T15:21:55.784Z,8.97
2023-03-05T15:26:59.916Z,8.82
2023-03-05T15:32:07.735Z,8.80
2023-03-05T15:37:12.740Z,8.75
2023-03-05T15:42:17.474Z,8.70
2023-03-05T15:47:23.023Z,8.53
2023-03-05T15:52:28.843Z,8.35
2023-03-05T15:57:37.831Z,8.42
2023-03-05T16:02:44.062Z,8.38
2023-03-05T16:07:51.819Z,8.45
2023-03-05T16:12:59.055Z,8.24
2023-03-05T16:18:09.521Z,8.22
2023-03-05T16:23:13.827Z,8.10
2023-03-05T16:28:17.876Z,8.06
2023-03-05T16:33:23.702Z,8.21
2023-03-05T16:38:28.155Z,7.98
2023-03-05T16:43:32.353Z,7.93
2023-03-05T16:48:38.898Z,7.92
2023-03-05T16:53:43.854Z,7.87
2023-03-05T16:58:51.399Z,7.62
2023-03-05T17:04:02.253Z,7.78
2023-03-05T17:09:07.559Z,7.59
2023-03-05T17:14:11.678Z,7.39
2023-03-05T17:19:17.163Z,7.52
2023-03-05T17:24:22.726Z,7.18
2023-03-05T17:29:27.423Z,7.01
2023-03-05T17:34:36.932Z,7.14
2023-03-05T17:39:42.391Z,7.12
2023-03-05T17:50:01.083Z,7.12
2023-03-05T17:55:09.166Z,6.88
2023-03-05T18:00:16.259Z,6.67
2023-03-05T18:05:24.603Z,6.55
2023-03-05T18:10:33.816Z,6.57
2023-03-05T18:15:41.898Z,6.64
2023-03-05T18:20:48.857Z,6.47
2023-03-05T18:25:54.834Z,6.54
2023-03-05T18:30:59.696Z,6.28
2023-03-05T18:36:06.693Z,6.29
2023-03-05T18:41:18.084Z,6.36
2023-03-05T18:46:23.074Z,6.18
2023-03-05T18:51:31.013Z,6.02
2023-03-05T18:56:36.822Z,5.93
2023-03-05T19:01:41.876Z,5.80
2023-03-05T19:06:49.834Z,5.63
2023-03-05T19:11:55.556Z,5.88
2023-03-05T19:17:00.414Z,5.85
2023-03-05T19:22:07.679Z,5.69
2023-03-05T19:27:14.601Z,5.08
2023-03-05T19:32:21.124Z,4.78
2023-03-05T19:37:26.801Z,4.55
2023-03-05T19:42:31.332Z,4.49
2023-03-05T19:47:35.661Z,4.31
2023-03-05T19:52:42.307Z,4.21
2023-03-05T19:57:46.652Z,4.07
2023-03-05T20:02:50.635Z,4.22
2023-03-05T20:07:56.399Z,4.05
2023-03-05T20:13:00.570Z,3.77
2023-03-05T20:18:05.196Z,3.53
2023-03-05T20:23:10.976Z,3.56
2023-03-05T20:28:15.310Z,3.62
2023-03-05T20:33:19.584Z,3.53
2023-03-05T20:38:26.499Z,3.38
2023-03-05T20:43:33.715Z,3.31
2023-03-05T20:48:38.251Z,3.36
2023-03-05T20:53:44.164Z,3.20
2023-03-05T20:58:49.115Z,3.20
2023-03-05T21:03:57.311Z,3.22
2023-03-05T21:09:05.661Z,3.10
2023-03-05T21:14:11.078Z,2.97
2023-03-05T21:19:15.494Z,2.98
2023-03-05T21:25:21.141Z,3.17
2023-03-05T21:30:31.716Z,3.02
2023-03-05T21:35:36.552Z,2.99
2023-03-05T21:40:48.927Z,3.08
2023-03-05T21:45:55.003Z,3.03
2023-03-05T21:50:59.745Z,2.84
2023-03-05T21:56:28.416Z,2.92
2023-03-05T22:01:32.735Z,2.77
2023-03-05T22:06:37.183Z,2.54
2023-03-05T22:11:44.195Z,2.41
2023-03-05T22:16:52.208Z,2.33
2023-03-05T22:21:57.563Z,2.40
2023-03-05T22:27:03.417Z,2.57
2023-03-05T22:32:07.701Z,2.96
2023-03-05T22:37:11.779Z,3.00
2023-03-05T22:42:17.593Z,2.56
2023-03-05T22:47:23.133Z,2.50
2023-03-05T22:52:27.956Z,2.24
2023-03-05T22:57:37.723Z,2.56
2023-03-05T23:02:42.545Z,2.56
2023-03-05T23:07:47.489Z,2.41
2023-03-05T23:12:54.946Z,2.43
2023-03-05T23:18:00.259Z,2.07
2023-03-05T23:23:05.767Z,1.84
2023-03-05T23:28:11.212Z,1.99
2023-03-05T23:33:18.556Z,1.96
2023-03-05T23:38:24.698Z,1.97
2023-03-05T23:43:30.720Z,1.65
2023-03-05T23:48:35.115Z,1.21
2023-03-05T23:53:39.263Z,1.25
2023-03-05T23:58:45.365Z,1.11
